createdAt,value
2017-09-18T00:01:33.989Z,1.50
2017-09-18T00:04:01.468Z,1.37
2017-09-18T00:06:28.937Z,1.03
2017-09-18T00:08:56.396Z,1.10
2017-09-18T00:11:23.872Z,1.27
2017-09-18T00:13:51.337Z,1.10
2017-09-18T00:16:18.816Z,1.40
2017-09-18T00:18:46.267Z,1.40
2017-09-18T00:21:13.743Z,1.00
2017-09-18T00:23:41.980Z,1.20
2017-09-18T00:26:09.456Z,1.43
2017-09-18T00:28:36.958Z,1.30
2017-09-18T00:31:04.436Z,1.63
2017-09-18T00:33:31.904Z,1.10
2017-09-18T00:35:59.392Z,1.80
2017-09-18T00:38:26.868Z,1.20
2017-09-18T00:40:55.107Z,1.20
2017-09-18T00:43:22.619Z,1.20
2017-09-18T00:45:50.088Z,1.10
2017-09-18T00:48:17.960Z,1.20
2017-09-18T00:50:48.989Z,1.30
2017-09-18T00:53:16.451Z,1.23
2017-09-18T00:55:43.935Z,1.20
2017-09-18T00:58:11.405Z,1.27
2017-09-18T01:00:38.876Z,0.87
2017-09-18T01:03:06.353Z,1.40
2017-09-18T01:05:34.576Z,0.90
2017-09-18T01:08:02.057Z,1.50
2017-09-18T01:10:29.525Z,1.27
2017-09-18T01:12:57.006Z,1.03
2017-09-18T01:15:25.240Z,1.20
2017-09-18T01:17:52.708Z,1.20
2017-09-18T01:20:20.172Z,1.10
2017-09-18T01:22:47.645Z,1.23
2017-09-18T01:25:15.115Z,0.87
2017-09-18T01:27:43.367Z,0.90
2017-09-18T01:30:10.823Z,1.13
2017-09-18T01:32:38.319Z,1.70
2017-09-18T01:35:06.544Z,1.00
2017-09-18T01:37:34.028Z,1.00
2017-09-18T01:40:01.492Z,1.40
2017-09-18T01:42:28.972Z,1.37
2017-09-18T01:44:56.439Z,1.20
2017-09-18T01:47:23.926Z,1.43
2017-09-18T01:49:51.386Z,1.20
2017-09-18T01:52:18.861Z,1.10
2017-09-18T01:54:46.385Z,1.10
2017-09-18T01:57:14.160Z,1.30
2017-09-18T02:02:34.300Z,1.10
2017-09-18T02:05:01.768Z,1.07
2017-09-18T02:07:29.253Z,1.60
2017-09-18T02:09:56.728Z,1.00
2017-09-18T02:12:24.191Z,1.10
2017-09-18T02:14:51.672Z,1.10
2017-09-18T02:17:19.148Z,1.07
2017-09-18T02:19:46.616Z,0.97
2017-09-18T02:22:14.116Z,1.00
2017-09-18T02:24:41.592Z,1.10
2017-09-18T02:27:09.065Z,1.07
2017-09-18T02:29:36.532Z,1.10
2017-09-18T02:32:04.000Z,0.97
2017-09-18T02:34:31.471Z,0.70
2017-09-18T02:37:00.414Z,1.17
2017-09-18T02:39:27.890Z,1.23
2017-09-18T02:41:55.365Z,1.00
2017-09-18T02:44:22.855Z,1.20
2017-09-18T02:46:51.080Z,1.20
2017-09-18T02:49:18.565Z,1.13
2017-09-18T02:51:46.047Z,1.40
2017-09-18T02:54:14.290Z,1.10
2017-09-18T02:56:41.755Z,1.03
2017-09-18T02:59:09.219Z,0.90
2017-09-18T03:01:36.681Z,1.23
2017-09-18T03:04:04.926Z,1.00
2017-09-18T03:06:32.395Z,1.00
2017-09-18T03:08:59.868Z,0.83
2017-09-18T03:11:27.340Z,1.43
2017-09-18T03:13:55.573Z,1.57
2017-09-18T03:16:23.047Z,1.30
2017-09-18T03:18:50.519Z,1.20
2017-09-18T03:21:17.979Z,1.40
2017-09-18T03:23:45.444Z,1.40
2017-09-18T03:26:13.679Z,1.33
2017-09-18T03:28:41.139Z,1.00
2017-09-18T03:31:08.616Z,1.70
2017-09-18T03:33:36.077Z,1.80
2017-09-18T03:36:03.559Z,1.47
2017-09-18T03:38:31.776Z,1.27
2017-09-18T03:40:59.244Z,1.40
2017-09-18T03:43:26.725Z,1.30
2017-09-18T03:45:54.198Z,1.43
2017-09-18T03:48:21.661Z,1.30
2017-09-18T03:50:49.899Z,1.40
2017-09-18T03:53:17.357Z,1.63
2017-09-18T03:55:44.827Z,1.10
2017-09-18T03:58:12.296Z,1.20
2017-09-18T04:00:39.760Z,1.50
2017-09-18T04:03:07.210Z,1.13
2017-09-18T04:05:34.686Z,1.53
2017-09-18T04:08:02.922Z,1.30
2017-09-18T04:10:30.380Z,1.10
2017-09-18T04:12:57.847Z,1.53
2017-09-18T04:15:25.316Z,1.30
2017-09-18T04:17:52.787Z,1.30
2017-09-18T04:20:21.815Z,1.33
2017-09-18T04:22:49.296Z,1.20
2017-09-18T04:25:16.764Z,1.60
2017-09-18T04:27:44.244Z,1.50
2017-09-18T04:30:11.711Z,1.40
2017-09-18T04:32:39.173Z,1.83
2017-09-18T04:35:07.395Z,1.50
2017-09-18T04:37:34.868Z,1.30
2017-09-18T04:40:02.337Z,1.40
2017-09-18T04:42:30.578Z,1.50
2017-09-18T04:44:58.039Z,1.43
2017-09-18T04:47:25.516Z,1.43
2017-09-18T04:49:52.984Z,1.10
2017-09-18T04:52:20.468Z,1.20
2017-09-18T04:54:48.692Z,1.10
2017-09-18T04:57:16.166Z,1.60
2017-09-18T04:59:43.628Z,1.30
2017-09-18T05:02:11.112Z,1.30
2017-09-18T05:04:38.585Z,1.60
2017-09-18T05:07:06.820Z,1.30
2017-09-18T05:09:34.297Z,1.50
2017-09-18T05:12:01.764Z,1.00
2017-09-18T05:14:29.261Z,1.80
2017-09-18T05:16:56.720Z,1.63
2017-09-18T05:19:24.200Z,1.70
2017-09-18T05:21:51.665Z,1.93
2017-09-18T05:24:19.133Z,1.50
2017-09-18T05:26:46.609Z,1.37
2017-09-18T05:29:14.089Z,1.20
2017-09-18T05:31:42.315Z,1.30
2017-09-18T05:34:09.795Z,1.60
2017-09-18T05:36:37.264Z,1.80
2017-09-18T05:39:05.498Z,1.57
2017-09-18T05:41:32.979Z,1.60
2017-09-18T05:44:00.447Z,1.40
2017-09-18T05:46:27.918Z,1.50
2017-09-18T05:48:55.385Z,1.77
2017-09-18T05:51:23.615Z,1.43
2017-09-18T05:53:51.078Z,1.77
2017-09-18T05:56:18.541Z,1.60
2017-09-18T05:58:46.025Z,2.13
2017-09-18T06:01:13.512Z,1.97
2017-09-18T06:03:40.971Z,1.93
2017-09-18T06:06:08.426Z,1.90
2017-09-18T06:08:35.887Z,1.87
2017-09-18T06:11:03.372Z,1.97
2017-09-18T06:13:30.827Z,1.80
2017-09-18T06:15:58.301Z,2.00
2017-09-18T06:18:25.767Z,2.23
2017-09-18T06:20:53.235Z,2.63
2017-09-18T06:23:20.705Z,2.70
2017-09-18T06:25:48.944Z,2.93
2017-09-18T06:28:16.412Z,2.20
2017-09-18T06:30:43.897Z,2.13
2017-09-18T06:33:12.130Z,1.60
2017-09-18T06:35:39.607Z,2.50
2017-09-18T06:38:07.059Z,3.20
2017-09-18T06:40:34.536Z,3.70
2017-09-18T06:43:02.008Z,4.20
2017-09-18T06:45:30.257Z,3.87
2017-09-18T06:47:57.728Z,4.67
2017-09-18T06:50:25.203Z,5.47
2017-09-18T06:52:53.443Z,4.90
2017-09-18T06:55:20.906Z,4.13
2017-09-18T06:57:48.381Z,4.27
2017-09-18T07:00:16.995Z,4.77
2017-09-18T07:02:44.465Z,6.40
2017-09-18T07:05:11.935Z,9.77
2017-09-18T07:07:39.405Z,9.70
2017-09-18T07:10:06.909Z,9.70
2017-09-18T07:12:34.389Z,12.47
2017-09-18T07:15:01.867Z,12.03
2017-09-18T07:17:29.338Z,11.57
2017-09-18T07:19:56.832Z,11.83
2017-09-18T07:22:24.299Z,10.33
2017-09-18T07:24:51.755Z,8.77
2017-09-18T07:27:19.231Z,11.90
2017-09-18T07:29:47.472Z,9.80
2017-09-18T07:32:14.968Z,8.53
2017-09-18T07:34:43.209Z,7.73
2017-09-18T07:37:10.696Z,8.47
2017-09-18T07:39:38.923Z,10.33
2017-09-18T07:42:06.769Z,8.60
2017-09-18T07:44:34.215Z,7.03
2017-09-18T07:47:01.709Z,6.13
2017-09-18T07:49:29.553Z,5.80
2017-09-18T07:51:57.028Z,5.70
2017-09-18T07:54:24.487Z,4.40
2017-09-18T07:56:51.977Z,5.30
2017-09-18T07:59:19.448Z,5.10
2017-09-18T08:01:46.910Z,4.83
2017-09-18T08:04:15.148Z,3.30
2017-09-18T08:06:42.645Z,4.20
2017-09-18T08:09:10.887Z,5.30
2017-09-18T08:11:39.130Z,3.60
2017-09-18T08:14:06.604Z,3.43
2017-09-18T08:16:34.060Z,3.20
2017-09-18T08:19:01.536Z,3.83
2017-09-18T08:21:28.999Z,3.17
2017-09-18T08:23:56.472Z,3.70
2017-09-18T08:26:23.927Z,3.10
2017-09-18T08:28:51.407Z,3.80
2017-09-18T08:31:19.642Z,3.20
2017-09-18T08:33:47.892Z,3.43
2017-09-18T08:36:15.356Z,3.63
2017-09-18T08:38:42.831Z,3.07
2017-09-18T08:41:10.296Z,3.37
2017-09-18T08:43:37.767Z,3.37
2017-09-18T08:46:05.241Z,2.87
2017-09-18T08:48:32.716Z,2.97
2017-09-18T08:51:00.947Z,2.57
2017-09-18T08:53:29.280Z,3.27
2017-09-18T08:55:56.735Z,3.03
2017-09-18T08:58:24.216Z,2.13
2017-09-18T09:00:51.673Z,2.87
2017-09-18T09:03:19.154Z,2.60
2017-09-18T09:05:46.619Z,2.27
2017-09-18T09:08:14.081Z,2.10
2017-09-18T09:10:41.551Z,2.30
2017-09-18T09:13:09.015Z,2.27
2017-09-18T09:15:36.493Z,2.40
2017-09-18T09:18:04.733Z,2.67
2017-09-18T09:20:32.384Z,2.30
2017-09-18T09:22:59.844Z,2.80
2017-09-18T09:25:27.327Z,2.57
2017-09-18T09:27:54.797Z,2.73
2017-09-18T09:30:23.031Z,2.80
2017-09-18T09:32:50.501Z,2.17
2017-09-18T09:35:17.974Z,2.50
2017-09-18T09:37:45.435Z,2.27
2017-09-18T09:40:12.921Z,1.97
2017-09-18T09:42:41.146Z,1.90
2017-09-18T09:45:08.670Z,2.10
2017-09-18T09:47:36.141Z,2.33
2017-09-18T09:50:03.626Z,2.87
2017-09-18T09:52:31.088Z,2.90
2017-09-18T09:54:59.486Z,2.30
2017-09-18T09:57:26.952Z,2.80
2017-09-18T09:59:55.191Z,2.33
2017-09-18T10:02:22.667Z,2.77
2017-09-18T10:04:50.156Z,3.57
2017-09-18T10:07:18.388Z,3.73
2017-09-18T10:09:45.847Z,5.00
2017-09-18T10:12:13.325Z,5.40
2017-09-18T10:14:40.780Z,5.87
2017-09-18T10:17:08.265Z,4.10
2017-09-18T10:19:36.479Z,3.30
2017-09-18T10:22:03.961Z,5.50
2017-09-18T10:24:31.423Z,4.90
2017-09-18T10:26:58.908Z,4.97
2017-09-18T10:29:26.364Z,4.80
2017-09-18T10:31:55.413Z,5.23
2017-09-18T10:34:22.890Z,5.30
2017-09-18T10:36:50.360Z,4.67
2017-09-18T10:39:17.830Z,4.03
2017-09-18T10:41:45.305Z,4.03
2017-09-18T10:44:13.537Z,4.93
2017-09-18T10:46:40.998Z,4.63
2017-09-18T10:49:08.470Z,4.30
2017-09-18T10:51:35.943Z,4.40
2017-09-18T10:54:04.180Z,3.53
2017-09-18T10:56:31.663Z,3.40
2017-09-18T10:58:59.130Z,3.00
2017-09-18T11:01:26.604Z,3.63
2017-09-18T11:03:54.852Z,2.83
2017-09-18T11:06:22.337Z,3.40
2017-09-18T11:08:50.568Z,3.17
2017-09-18T11:11:18.040Z,2.07
2017-09-18T11:13:45.528Z,2.63
2017-09-18T11:16:13.763Z,2.73
2017-09-18T11:18:41.224Z,2.90
2017-09-18T11:21:08.695Z,2.50
2017-09-18T11:23:36.155Z,1.70
2017-09-18T11:26:03.641Z,2.17
2017-09-18T11:28:31.881Z,1.90
2017-09-18T11:30:59.357Z,1.80
2017-09-18T11:33:26.837Z,2.17
2017-09-18T11:35:55.063Z,2.47
2017-09-18T11:38:22.544Z,2.20
2017-09-18T11:40:50.060Z,2.30
2017-09-18T11:43:17.534Z,1.90
2017-09-18T11:45:45.009Z,1.77
2017-09-18T11:48:12.471Z,1.93
2017-09-18T11:50:39.935Z,1.70
2017-09-18T11:53:07.420Z,2.10
2017-09-18T11:55:35.653Z,2.07
2017-09-18T11:58:03.131Z,2.23
2017-09-18T12:00:30.587Z,2.40
2017-09-18T12:02:58.068Z,2.30
2017-09-18T12:05:26.300Z,2.20
2017-09-18T12:07:53.784Z,1.87
2017-09-18T12:10:21.254Z,1.50
2017-09-18T12:12:48.723Z,1.70
2017-09-18T12:15:16.954Z,1.50
2017-09-18T12:17:44.440Z,1.90
2017-09-18T12:20:11.908Z,1.57
2017-09-18T12:22:40.167Z,1.63
2017-09-18T12:25:07.989Z,1.87
2017-09-18T12:27:35.439Z,1.40
2017-09-18T12:30:02.920Z,1.40
2017-09-18T12:32:30.379Z,1.47
2017-09-18T12:34:57.876Z,1.53
2017-09-18T12:37:25.345Z,1.53
2017-09-18T12:39:53.589Z,1.17
2017-09-18T12:42:21.053Z,1.60
2017-09-18T12:44:48.519Z,1.60
2017-09-18T12:47:15.982Z,1.23
2017-09-18T12:49:43.466Z,1.37
2017-09-18T12:52:11.688Z,1.43
2017-09-18T12:54:39.205Z,1.50
2017-09-18T12:57:07.439Z,1.50
2017-09-18T12:59:34.929Z,1.90
2017-09-18T13:02:03.155Z,1.57
2017-09-18T13:04:30.623Z,1.43
2017-09-18T13:06:58.093Z,1.73
2017-09-18T13:09:25.569Z,1.70
2017-09-18T13:11:53.030Z,2.07
2017-09-18T13:14:20.487Z,1.40
2017-09-18T13:16:47.968Z,1.50
2017-09-18T13:19:15.440Z,1.63
2017-09-18T13:21:42.975Z,1.60
2017-09-18T13:24:11.209Z,1.50
2017-09-18T13:26:38.682Z,1.47
2017-09-18T13:29:06.148Z,2.77
2017-09-18T13:31:33.619Z,1.53
2017-09-18T13:34:01.843Z,1.13
2017-09-18T13:36:29.311Z,1.50
2017-09-18T13:38:56.791Z,1.60
2017-09-18T13:41:24.251Z,1.73
2017-09-18T13:43:51.729Z,1.50
2017-09-18T13:46:19.983Z,2.63
2017-09-18T13:48:47.453Z,1.43
2017-09-18T13:51:14.932Z,1.53
2017-09-18T13:53:43.168Z,1.70
2017-09-18T13:56:10.636Z,1.70
2017-09-18T13:58:38.171Z,1.10
2017-09-18T14:01:05.636Z,1.60
2017-09-18T14:03:33.098Z,2.07
2017-09-18T14:06:00.574Z,1.80
2017-09-18T14:08:28.053Z,1.60
2017-09-18T14:10:57.683Z,1.30
2017-09-18T14:13:25.158Z,1.97
2017-09-18T14:15:52.632Z,1.77
2017-09-18T14:18:20.112Z,1.50
2017-09-18T14:20:47.571Z,1.63
2017-09-18T14:23:15.046Z,1.40
2017-09-18T14:25:42.519Z,1.50
2017-09-18T14:28:10.748Z,1.87
2017-09-18T14:30:38.213Z,1.80
2017-09-18T14:33:05.684Z,1.67
2017-09-18T14:35:33.143Z,2.07
2017-09-18T14:38:00.617Z,2.10
2017-09-18T14:40:28.085Z,1.90
2017-09-18T14:42:56.326Z,1.67
2017-09-18T14:45:23.800Z,1.40
2017-09-18T14:47:51.276Z,2.20
2017-09-18T14:50:19.502Z,2.03
2017-09-18T14:52:47.000Z,2.17
2017-09-18T14:55:14.729Z,1.90
2017-09-18T14:57:42.212Z,1.90
2017-09-18T15:00:09.663Z,2.00
2017-09-18T15:02:37.139Z,2.30
2017-09-18T15:05:04.596Z,1.80
2017-09-18T15:07:32.069Z,1.73
2017-09-18T15:10:00.305Z,1.80
2017-09-18T15:12:27.786Z,1.63
2017-09-18T15:14:55.707Z,2.37
2017-09-18T15:17:23.154Z,1.80
2017-09-18T15:19:50.629Z,2.20
2017-09-18T15:22:18.083Z,2.00
2017-09-18T15:24:45.570Z,2.20
2017-09-18T15:27:13.023Z,2.20
2017-09-18T15:29:40.504Z,1.93
2017-09-18T15:32:07.971Z,1.80
2017-09-18T15:34:35.444Z,2.33
2017-09-18T15:37:03.669Z,2.10
2017-09-18T15:39:31.907Z,2.30
2017-09-18T15:41:59.371Z,2.30
2017-09-18T15:44:26.834Z,2.47
2017-09-18T15:46:54.305Z,2.50
2017-09-18T15:49:21.806Z,2.37
2017-09-18T15:51:49.268Z,2.30
2017-09-18T15:54:16.753Z,2.20
2017-09-18T15:56:44.231Z,3.03
2017-09-18T15:59:11.700Z,2.70
2017-09-18T16:01:39.176Z,3.07
2017-09-18T16:04:07.424Z,2.97
2017-09-18T16:06:34.903Z,3.10
2017-09-18T16:09:02.368Z,2.87
2017-09-18T16:11:29.852Z,3.10
2017-09-18T16:13:57.320Z,3.00
2017-09-18T16:16:25.560Z,2.37
2017-09-18T16:18:53.052Z,2.63
2017-09-18T16:21:20.519Z,2.87
2017-09-18T16:23:48.797Z,3.60
2017-09-18T16:26:17.041Z,2.90
2017-09-18T16:28:44.504Z,3.63
2017-09-18T16:31:11.984Z,2.23
2017-09-18T16:33:40.218Z,2.73
2017-09-18T16:36:07.692Z,3.23
2017-09-18T16:38:35.161Z,3.10
2017-09-18T16:41:02.627Z,3.10
2017-09-18T16:43:30.099Z,2.97
2017-09-18T16:45:58.338Z,3.70
2017-09-18T16:48:25.817Z,3.60
2017-09-18T16:50:53.296Z,3.30
2017-09-18T16:53:21.530Z,3.20
2017-09-18T16:55:49.028Z,3.37
2017-09-18T16:58:17.300Z,3.63
2017-09-18T17:00:45.540Z,4.90
2017-09-18T17:03:13.005Z,4.40
2017-09-18T17:05:40.464Z,4.60
2017-09-18T17:08:07.949Z,4.70
2017-09-18T17:10:37.140Z,4.47
2017-09-18T17:13:04.621Z,4.73
2017-09-18T17:15:32.849Z,6.10
2017-09-18T17:18:00.320Z,5.90
2017-09-18T17:20:27.792Z,5.87
2017-09-18T17:22:55.294Z,6.37
2017-09-18T17:25:23.162Z,5.40
2017-09-18T17:27:52.289Z,4.93
2017-09-18T17:30:19.757Z,4.70
2017-09-18T17:32:47.232Z,5.20
2017-09-18T17:35:14.687Z,5.20
2017-09-18T17:37:42.169Z,4.50
2017-09-18T17:40:10.412Z,5.00
2017-09-18T17:42:37.886Z,5.40
2017-09-18T17:45:05.348Z,5.80
2017-09-18T17:47:33.588Z,5.37
2017-09-18T17:50:01.056Z,5.50
2017-09-18T17:52:28.522Z,5.80
2017-09-18T17:54:55.988Z,6.80
2017-09-18T18:00:16.977Z,5.60
2017-09-18T18:02:44.448Z,5.20
2017-09-18T18:05:11.922Z,6.13
2017-09-18T18:07:39.847Z,7.53
2017-09-18T18:10:17.238Z,7.00
2017-09-18T18:12:44.716Z,7.60
2017-09-18T18:15:12.198Z,6.43
2017-09-18T18:17:39.677Z,6.90
2017-09-18T18:20:07.141Z,6.37
2017-09-18T18:22:38.218Z,6.60
2017-09-18T18:25:05.693Z,7.20
2017-09-18T18:27:33.157Z,6.03
2017-09-18T18:30:00.997Z,6.13
2017-09-18T18:32:28.461Z,6.50
2017-09-18T18:34:55.953Z,7.50
2017-09-18T18:37:23.678Z,7.30
2017-09-18T18:39:51.158Z,7.80
2017-09-18T18:42:18.620Z,8.60
2017-09-18T18:44:46.093Z,8.30
2017-09-18T18:47:13.569Z,7.83
2017-09-18T18:49:41.048Z,7.90
2017-09-18T18:52:09.281Z,7.80
2017-09-18T18:54:36.762Z,6.70
2017-09-18T18:57:04.233Z,7.03
2017-09-18T18:59:32.481Z,7.70
2017-09-18T19:01:59.976Z,7.80
2017-09-18T19:04:28.228Z,6.90
2017-09-18T19:06:55.692Z,7.83
2017-09-18T19:09:23.167Z,7.50
2017-09-18T19:11:51.404Z,7.60
2017-09-18T19:14:20.384Z,8.10
2017-09-18T19:16:47.865Z,7.50
2017-09-18T19:19:15.377Z,7.30
2017-09-18T19:21:42.862Z,8.33
2017-09-18T19:24:10.336Z,7.80
2017-09-18T19:26:37.813Z,6.97
2017-09-18T19:29:06.041Z,7.80
2017-09-18T19:31:34.957Z,8.83
2017-09-18T19:34:02.430Z,11.40
2017-09-18T19:36:30.685Z,9.90
2017-09-18T19:38:58.151Z,8.43
2017-09-18T19:41:25.624Z,7.70
2017-09-18T19:43:53.891Z,7.27
2017-09-18T19:46:21.367Z,8.37
2017-09-18T19:48:49.691Z,8.40
2017-09-18T19:51:17.216Z,8.73
2017-09-18T19:53:44.748Z,7.73
2017-09-18T19:56:13.001Z,7.93
2017-09-18T19:58:40.473Z,8.30
2017-09-18T20:01:07.961Z,8.13
2017-09-18T20:03:35.440Z,7.57
2017-09-18T20:06:02.944Z,6.93
2017-09-18T20:08:30.432Z,7.37
2017-09-18T20:10:58.660Z,7.33
2017-09-18T20:13:26.144Z,8.03
2017-09-18T20:15:53.608Z,8.40
2017-09-18T20:18:21.856Z,7.70
2017-09-18T20:20:50.096Z,6.97
2017-09-18T20:23:17.583Z,8.43
2017-09-18T20:25:45.831Z,8.50
2017-09-18T20:28:13.316Z,7.90
2017-09-18T20:30:41.552Z,8.37
2017-09-18T20:33:09.047Z,9.10
2017-09-18T20:35:36.529Z,7.83
2017-09-18T20:38:04.776Z,8.43
2017-09-18T20:40:33.560Z,9.70
2017-09-18T20:43:01.069Z,7.80
2017-09-18T20:45:28.535Z,9.63
2017-09-18T20:47:56.008Z,8.70
2017-09-18T20:50:23.484Z,9.17
2017-09-18T20:52:51.772Z,10.13
2017-09-18T20:55:19.316Z,9.20
2017-09-18T20:57:46.800Z,8.87
2017-09-18T21:00:14.264Z,9.07
2017-09-18T21:02:42.516Z,8.20
2017-09-18T21:05:09.987Z,9.00
2017-09-18T21:07:37.504Z,7.83
2017-09-18T21:10:05.007Z,9.13
2017-09-18T21:12:32.468Z,7.57
2017-09-18T21:14:59.955Z,6.80
2017-09-18T21:17:27.438Z,8.50
2017-09-18T21:19:54.911Z,7.33
2017-09-18T21:22:22.388Z,7.27
2017-09-18T21:24:49.852Z,7.47
2017-09-18T21:27:17.317Z,6.67
2017-09-18T21:29:44.874Z,7.10
2017-09-18T21:32:12.331Z,6.60
2017-09-18T21:34:39.809Z,7.60
2017-09-18T21:37:08.040Z,6.90
2017-09-18T21:39:35.880Z,7.20
2017-09-18T21:42:03.344Z,6.23
2017-09-18T21:44:30.833Z,6.40
2017-09-18T21:46:58.301Z,6.43
2017-09-18T21:49:25.780Z,5.63
2017-09-18T21:51:54.013Z,6.40
2017-09-18T21:54:21.496Z,6.77
2017-09-18T21:56:48.960Z,5.53
2017-09-18T21:59:16.441Z,5.30
2017-09-18T22:01:44.674Z,5.20
2017-09-18T22:04:12.148Z,5.07
2017-09-18T22:06:40.833Z,4.10
2017-09-18T22:09:08.304Z,4.47
2017-09-18T22:11:36.672Z,3.97
2017-09-18T22:14:04.185Z,4.73
2017-09-18T22:16:31.657Z,4.67
2017-09-18T22:18:59.120Z,4.10
2017-09-18T22:21:26.746Z,4.13
2017-09-18T22:23:54.211Z,4.67
2017-09-18T22:26:21.686Z,5.27
2017-09-18T22:28:49.168Z,4.40
2017-09-18T22:31:16.664Z,4.80
2017-09-18T22:33:44.905Z,4.67
2017-09-18T22:36:12.377Z,4.40
2017-09-18T22:38:39.836Z,4.63
2017-09-18T22:41:07.310Z,4.23
2017-09-18T22:43:35.552Z,5.00
2017-09-18T22:46:03.032Z,4.80
2017-09-18T22:48:30.522Z,4.73
2017-09-18T22:50:58.004Z,5.43
2017-09-18T22:53:25.480Z,4.50
2017-09-18T22:55:52.960Z,4.53
2017-09-18T22:58:20.425Z,4.70
2017-09-18T23:00:47.906Z,5.40
2017-09-18T23:03:15.381Z,4.00
2017-09-18T23:05:42.864Z,4.60
2017-09-18T23:08:10.324Z,4.27
2017-09-18T23:10:37.837Z,5.20
2017-09-18T23:13:06.079Z,4.30
2017-09-18T23:15:33.560Z,4.70
2017-09-18T23:18:01.838Z,4.03
2017-09-18T23:20:30.075Z,4.73
2017-09-18T23:22:57.547Z,3.90
2017-09-18T23:25:25.032Z,5.13
2017-09-18T23:27:53.258Z,4.00
2017-09-18T23:30:20.742Z,4.27
2017-09-18T23:32:48.204Z,3.90
2017-09-18T23:35:15.674Z,4.33
2017-09-18T23:37:43.145Z,4.20
2017-09-18T23:40:11.400Z,4.43
2017-09-18T23:42:38.869Z,4.60
2017-09-18T23:45:07.111Z,4.30
2017-09-18T23:47:34.621Z,4.13
2017-09-18T23:50:02.850Z,4.23
2017-09-18T23:52:30.316Z,4.47
2017-09-18T23:54:57.809Z,4.20
2017-09-18T23:57:26.056Z,4.10
2017-09-18T23:59:54.081Z,4.03
